Aérodrome :
LOGIN :

S'inscrire | Disclaimer

   EN    FR    IT 

 










Légende :    VFR   VFR Marginal   IFR   IFR Intensif   IFR Très Intensif
Visi : 
Plafond : 
>= 8 km
>= 3000ft
5 à 8 km
1000 à 3000 ft
1500m à 5 km
500 à 1000 ft
800 à 1500m
200 à 500 ft
< 800m
< 200 ft
Symboles :   Orages  Brouillard  Fortes neiges  Fortes précipitations  Vent > 20 kt
SIGMETs :   Divers  Orages  Givrage  Turbulence  Onde Orograph.  Cendres Volcan.






- Altitude de l'aérodrome : 1400 ft


LSME - Luzern Emmen

DERNIER METAR :
  • 060450Z AUTO 20003KT 5000NDV BR OVC004 M01/M02 Q1023 RMK

METARs EXPIRÉS :
  • 060420Z AUTO 17003KT 150V210 5000NDV BR OVC003 M01/M02 Q1023 RMK
  • 060350Z AUTO 17003KT 4500NDV BR OVC003 M01/M02 Q1023 RMK
  • 060320Z AUTO 25003KT 210V280 3500NDV BR OVC003 M01/M02 Q1023 RMK
  • 060250Z AUTO 25003KT 210V280 4200NDV BR OVC003 M01/M02 Q1023 RMK
  • 060220Z AUTO 25004KT 210V280 4400NDV BR OVC004 M01/M02 Q1023 RMK

Prévision TAF périmée.



MET'MAP, la Météo Aéronautique d'un coup d'oeil ! - Copyright ORBIFLY Décembre 2007 - Disclaimer

ORBIFLY MET'MAP TEAM :

Programmation & Développement : Alexandra Zaïnal
Sur une idée originale de : Baudouin d'Aumeries
Assistance à la programmation : Marc-Olivier Méhu
Soutien technique & logistique : Manuel Goepfert

Contact : metmap@orbifly.com




SOURCES & CREDITS :

   NOAA